Tiempo atmosférico en la estación meteorológica de Fuente El Sol, Valladolid (755 m.)



Fecha
DESCASC
Temp. máxima en grados centígrados (hora)
DESCASC
Temp. mínima en grados centígrados (hora)
DESCASC
Temp. media en grados centígrados
DESCASC
Racha de viento máxima en m/sg (hora)
DESCASC
Velocidad máxima media en intervalos de 10 minutos(hora)
DESCASC
Precipitaciones diarias en mm
DESCASC
Precipitaciones de 00:00 a 06:00 en mm
DESCASC
Precipitaciones de 06:00 a 12:00 en mm
DESCASC
Precipitaciones de 12:00 a 18:00 en mm
DESCASC
Precipitaciones de 18:00 a 24:00 en mm
DESCASC
16-06-2019 30.3 (17:30) 4.7 (06:50) 17.5 8.33 (20:20) 5.83 (20:30) 0 0 0 0 0
15-06-2019 25 (18:40) 6.5 (07:00) 15.8 8.89 (13:50) 5.28 (04:40) 0 0 0 0 0
14-06-2019 22.3 (16:50) 4.9 (06:30) 13.6 14.72 (17:10) 10 (17:10) 0 0 0 0 0
13-06-2019 25.2 (17:10) 4.3 (00:00) 14.8 15 (16:20) 8.89 (18:50) 0 0 0 0 0
12-06-2019 23.2 (18:50) 1.9 (00:00) 12.6 10.56 (19:00) 5.28 (17:10) 0 0 0 0 0
11-06-2019 20 (18:30) 9.6 (00:00) 14.8 13.33 (17:30) 6.11 (13:30) 0 0 0 0 0
10-06-2019 23.5 (19:20) 4.8 (00:00) 14.2 9.72 (22:00) 6.67 (22:00) 0 0 0 0 0
09-06-2019 24.1 (16:10) 8.1 (00:00) 16.1 11.39 (17:00) 8.06 (20:10) 0 0 0 0 0
08-06-2019 27.4 (16:10) 2.1 (00:00) 14.7 10.83 (17:20) 6.67 (18:20) 0 0 0 0 0
07-06-2019 19 (18:20) 6.9 (00:00) 13 12.78 (00:40) 7.78 (09:30) 0.6 0.6 0 0 0
06-06-2019 22.7 (17:40) 4.6 (00:00) 13.7 17.78 (22:10) 11.67 (20:10) 1.4 0 0 0 1.4
05-06-2019 19 (16:30) 7.5 (00:00) 13.3 12.22 (15:30) 7.78 (17:50) 0.4 0.4 0 0 0
04-06-2019 24.9 (17:00) 10.7 (00:00) 17.8 14.72 (18:00) 10 (18:00) 0 0 0 0 0
03-06-2019 31.4 (17:40) 14.1 (00:00) 22.8 12.78 (20:00) 8.61 (20:00) 0 0 0 0 0
02-06-2019 32.5 (15:10) 13.9 (00:00) 23.2 11.11 (18:20) 7.78 (18:20) 0 0 0 0 0
01-06-2019 33.7 (17:10) 9.2 (00:00) 21.5 7.22 (14:40) 4.17 (23:40) 0 0 0 0 0
31-05-2019 33.1 (17:50) 8.1 (00:00) 20.6 13.33 (18:10) 4.17 (13:20) 0 0 0 0 0
30-05-2019 29.9 (18:40) 5.7 (00:00) 17.8 13.06 (16:20) 5.28 (19:30) 0 0 0 0 0
29-05-2019 23.5 (17:40) 4 (00:00) 13.8 13.06 (17:40) 6.67 (15:10) 0 0 0 0 0
28-05-2019 23.1 (18:00) 7.2 (00:00) 15.2 12.22 (21:10) 7.5 (21:20) 0 0 0 0 0
27-05-2019 27 (17:50) 8.8 (00:00) 17.9 15.83 (16:50) 7.22 (23:00) 0 0 0 0 0
26-05-2019 25.1 (17:40) 4.6 (00:00) 14.9 10.56 (19:00) 5.83 (18:50) 0 0 0 0 0
25-05-2019 21.8 (18:00) 4.5 (00:00) 13.1 13.33 (12:00) 7.5 (09:50) 0 0 0 0 0
24-05-2019 21.3 (17:20) 8.1 (00:00) 14.7 10.83 (18:10) 6.94 (12:40) 0 0 0 0 0
23-05-2019 27.8 (15:50) 11.9 (00:00) 19.8 10.83 (18:30) 6.94 (18:50) 0 0 0 0 0
22-05-2019 28.3 (19:20) 4.8 (00:00) 16.5 7.22 (15:20) 3.61 (16:50) 0 0 0 0 0

Gráficas

Temp. máximas Temp. mínimas Temp. medias Precipitaciones Rachas de viento máximas Velocidades máximas media en intervalos de 10 minutos

Datos horarios

Fecha y hora oficial Temperatura (ºC) Velocidad del viento (km/h) Dirección del viento Racha (km/h) Dirección de racha Precipitación (mm) Presión (hPa) Tendencia (hPa) Humedad (%)
2019-06-20 23:00:00 -- -- -- -- -- -- -- -- --
2019-06-20 22:00:00 -- -- -- -- -- -- -- -- --
2019-06-20 21:00:00 -- -- -- -- -- -- -- -- --
2019-06-20 20:00:00 22.2 13 Oeste 32 Oeste 0 -- -- 42
2019-06-20 19:00:00 21.7 22 Oeste 40 Oeste 1.4 -- -- 60
2019-06-20 18:00:00 25.4 16 Oeste 28 Oeste 0 -- -- 31
2019-06-20 17:00:00 28.2 8 Oeste 21 Oeste 0 -- -- 28
2019-06-20 16:00:00 25.1 5 Sudoeste 26 Noroeste 0 -- -- 33
2019-06-20 15:00:00 26.3 10 Noroeste 27 Nordeste 0 -- -- 33
2019-06-20 14:00:00 25.5 8 Noroeste 25 Nordeste 0 -- -- 35
2019-06-20 13:00:00 23.5 6 Norte 16 Norte 0 -- -- 40
2019-06-20 12:00:00 21.4 9 Noroeste 14 Nordeste 0 -- -- 45
2019-06-20 11:00:00 21.6 5 Norte 11 Norte 0 -- -- 44
2019-06-20 10:00:00 19.5 5 Noroeste 9 Oeste 0 -- -- 53
2019-06-20 09:00:00 17.2 3 Noroeste 9 Oeste 0 -- -- 60
2019-06-20 08:00:00 15.7 5 Oeste 9 Oeste 0 -- -- 65
2019-06-20 07:00:00 15.2 6 Sudoeste 10 Oeste 0 -- -- 66
2019-06-20 06:00:00 15.2 5 Sudoeste 10 Oeste 0 -- -- 65
2019-06-20 05:00:00 15.5 6 Oeste 12 Oeste 0 -- -- 64
2019-06-20 04:00:00 15.5 5 Oeste 8 Oeste 0 -- -- 65
2019-06-20 03:00:00 14.5 6 Sudoeste 10 Oeste 0 -- -- 69
2019-06-20 02:00:00 15.1 3 Oeste 8 Sudoeste 0 -- -- 66
2019-06-20 01:00:00 16.3 5 Sudoeste 6 Sudoeste 0 -- -- 62
2019-06-20 00:00:00 16.4 4 Sudoeste 10 Oeste 0 -- -- 61
2019-06-19 23:00:00 16.8 9 Oeste 13 Oeste 0 -- -- 59
2019-06-19 22:00:00 19.5 7 Sudoeste 30 Oeste 0 -- -- 52
2019-06-19 21:00:00 22.6 16 Oeste 30 Oeste 0 -- -- 45
2019-06-19 20:00:00 22.8 18 Oeste 33 Oeste 0 -- -- 46
2019-06-19 19:00:00 23.3 22 Sudoeste 36 Oeste 0 -- -- 43
2019-06-19 18:00:00 24.2 24 Oeste 36 Sudoeste 0 -- -- 40
2019-06-19 17:00:00 24.1 21 Sudoeste 40 Oeste 0 -- -- 40
2019-06-19 16:00:00 23.4 21 Oeste 40 Sudoeste 0 -- -- 42
2019-06-19 15:00:00 24.2 22 Sudoeste 40 Sudoeste 0 -- -- 39
2019-06-19 14:00:00 23.4 18 Sudoeste 33 Sudoeste 0 -- -- 40
2019-06-19 13:00:00 21.9 20 Sudoeste 34 Sudoeste 0 -- -- 45
2019-06-19 12:00:00 21.7 21 Sudoeste 35 Sudoeste 0 -- -- 50
2019-06-19 11:00:00 20.3 22 Sudoeste 38 Sudoeste 0 -- -- 53
2019-06-19 10:00:00 18.7 23 Sudoeste 32 Sudoeste 0 -- -- 65
2019-06-19 09:00:00 17.2 14 Sur 22 Sur 0 -- -- 69
2019-06-19 08:00:00 15 12 Sur 15 Sur 0 -- -- 77
2019-06-19 07:00:00 12.3 6 Sudoeste 26 Sudoeste 0 -- -- 86
2019-06-19 06:00:00 13.7 18 Sudoeste 23 Sudoeste 0 -- -- 81
2019-06-19 05:00:00 12.8 9 Sur 12 Sur 0 -- -- 80
2019-06-19 04:00:00 13.7 12 Sur 15 Sur 0 -- -- 77
2019-06-19 03:00:00 13.2 8 Sudoeste 16 Sudoeste 0 -- -- 80
2019-06-19 02:00:00 14.5 12 Sudoeste 17 Sur 0 -- -- 75
2019-06-19 01:00:00 17 11 Sur 24 Sudoeste 0 -- -- 65
2019-06-19 00:00:00 18.4 20 Sudoeste 28 Sudoeste 0 -- -- 61
2019-06-18 23:00:00 18.6 17 Sudoeste 34 Sudoeste 0 -- -- 58
2019-06-18 22:00:00 20.2 22 Sudoeste 42 Sudoeste 0 -- -- 52
2019-06-18 21:00:00 21.6 26 Sudoeste 44 Sur 0 -- -- 47
2019-06-18 20:00:00 23.4 29 Sudoeste 49 Sudoeste 0 -- -- 42
2019-06-18 19:00:00 23.9 38 Sudoeste 54 Sudoeste 0 -- -- 37
2019-06-18 18:00:00 24.8 42 Sudoeste 60 Sudoeste 0 -- -- 38
2019-06-18 17:00:00 26 37 Sudoeste 59 Sudoeste 0 -- -- 31
2019-06-18 16:00:00 26 35 Sudoeste 53 Sudoeste 0 -- -- 28
2019-06-18 15:00:00 26 33 Sudoeste 49 Sudoeste 0 -- -- 24
2019-06-18 14:00:00 26.1 27 Sudoeste 46 Sudoeste 0 -- -- 18
2019-06-18 13:00:00 25.7 20 Sudoeste 34 Sudoeste 0 -- -- 19
2019-06-18 12:00:00 24.8 12 Sudoeste 27 Sur 0 -- -- 25
2019-06-18 11:00:00 22.5 17 Sudoeste 30 Sudoeste 0 -- -- 30
2019-06-18 10:00:00 20.7 24 Sudoeste 35 Sudoeste 0 -- -- 37
2019-06-18 09:00:00 17.3 24 Sudoeste 33 Sudoeste 0 -- -- 47
2019-06-18 08:00:00 15.9 19 Sudoeste 29 Sudoeste 0 -- -- 45
2019-06-18 07:00:00 16 17 Sudoeste 23 Sudoeste 0 -- -- 35
2019-06-18 06:00:00 15 8 Sur 15 Sur 0 -- -- 37
2019-06-18 05:00:00 15 10 Sur 16 Sudeste 0 -- -- 39
2019-06-18 04:00:00 14 4 Sudeste 11 Sudeste 0 -- -- 45
2019-06-18 03:00:00 16.4 8 Sudeste 17 Este 0 -- -- 41
2019-06-18 02:00:00 18.7 11 Este 20 Este 0 -- -- 39
2019-06-18 01:00:00 19.9 10 Nordeste 15 Norte 0 -- -- 35
2019-06-18 00:00:00 19.5 8 Noroeste 15 Noroeste 0 -- -- 36
2019-06-17 23:00:00 20.5 8 Noroeste 12 Oeste 0 -- -- 29
2019-06-17 22:00:00 22.5 9 Sudoeste 18 Sudoeste 0 -- -- 24
2019-06-17 21:00:00 25 16 Sudoeste 33 Sudoeste 0 -- -- 21
2019-06-17 20:00:00 26.1 28 Oeste 42 Sudoeste 0 -- -- 22
2019-06-17 19:00:00 27.4 30 Sudoeste 45 Sudoeste 0 -- -- 20
2019-06-17 18:00:00 29.7 21 Sudoeste 36 Sudoeste 0 -- -- 18
2019-06-17 17:00:00 29.8 15 Oeste 40 Oeste 0 -- -- 20
2019-06-17 16:00:00 29.6 19 Sudoeste 29 Sudoeste 0 -- -- 19
2019-06-17 15:00:00 29.6 12 Sudoeste 23 Sudoeste 0 -- -- 20
2019-06-17 14:00:00 27.5 15 Sudoeste 25 Sudeste 0 -- -- 23
2019-06-17 13:00:00 26 9 Sudoeste 26 Sudeste 0 -- -- 27
2019-06-17 12:00:00 26 3 Norte 16 Sudoeste 0 -- -- 29
2019-06-17 11:00:00 23.4 5 Sudoeste 15 Sudoeste 0 -- -- 38
2019-06-17 10:00:00 21.7 4 Sudoeste 11 Sur 0 -- -- 49
2019-06-17 09:00:00 17.3 9 Sudoeste 13 Sur 0 -- -- 57
2019-06-17 08:00:00 14.3 3 Sudeste 9 Sur 0 -- -- 59
2019-06-17 07:00:00 9.4 8 Sudoeste 12 Sudoeste 0 -- -- 77
2019-06-17 06:00:00 11.1 2 Sudeste 17 Sudoeste 0 -- -- 70
2019-06-17 05:00:00 12.3 10 Sur 21 Sudoeste 0 -- -- 61
2019-06-17 04:00:00 11.7 14 Sudoeste 17 Sudoeste 0 -- -- 54
2019-06-17 03:00:00 10.7 3 Sur 12 Noroeste 0 -- -- 47
2019-06-17 02:00:00 12.5 3 Sudeste 11 Sudeste 0 -- -- 43
2019-06-17 01:00:00 13.5 8 Sudeste 12 Sur 0 -- -- 42
2019-06-17 00:00:00 15.7 9 Sudoeste 15 Sudoeste 0 -- -- 40
2019-06-16 23:00:00 17.2 14 Sudoeste 16 Sudoeste 0 -- -- 34
2019-06-16 22:00:00 21 12 Sudoeste 18 Sudoeste 0 -- -- 23
2019-06-16 21:00:00 25.3 17 Sudoeste 30 Sudoeste 0 -- -- 18
2019-06-16 20:00:00 27.3 18 Oeste 27 Oeste 0 -- -- 18
2019-06-16 19:00:00 27.7 14 Oeste 26 Sudoeste 0 -- -- 18
2019-06-16 18:00:00 29.3 16 Oeste 27 Oeste 0 -- -- 18
2019-06-16 17:00:00 28.1 9 Sur 24 Oeste 0 -- -- 18
2019-06-16 16:00:00 28.1 8 Sur 25 Sudoeste 0 -- -- 19
2019-06-16 15:00:00 27.7 5 Sur 22 Oeste 0 -- -- 19
2019-06-16 14:00:00 25.8 14 Sudoeste 26 Sudoeste 0 -- -- 21
2019-06-16 13:00:00 24.4 18 Sudoeste 25 Oeste 0 -- -- 23
2019-06-16 12:00:00 23.9 4 Noroeste 13 Este 0 -- -- 26
2019-06-16 11:00:00 21 3 Sudoeste 10 Noroeste 0 -- -- 30
2019-06-16 10:00:00 19.3 4 Oeste 8 Oeste 0 -- -- 33
2019-06-16 09:00:00 15 0 Calma 6 Norte 0 -- -- 40
2019-06-16 08:00:00 10.8 2 Norte 6 Noroeste 0 -- -- 47
2019-06-16 07:00:00 4.9 4 Noroeste 6 Noroeste 0 -- -- 65
2019-06-16 06:00:00 6 3 Nordeste 8 Nordeste 0 -- -- 63
2019-06-16 05:00:00 6.2 5 Oeste 8 Oeste 0 -- -- 64
2019-06-16 04:00:00 7.2 0 Calma 5 Sudeste 0 -- -- 60
2019-06-16 03:00:00 9.2 0 Calma 5 Sudeste 0 -- -- 53
2019-06-16 02:00:00 10.1 3 Sur 9 Sudoeste 0 -- -- 51
2019-06-16 01:00:00 10.4 12 Sudoeste 14 Sudoeste 0 -- -- 50
2019-06-16 00:00:00 11.6 0 Calma 4 Nordeste 0 -- -- 50
2019-06-15 23:00:00 14.6 4 Nordeste 9 Noroeste 0 -- -- 39
2019-06-15 22:00:00 18.6 3 Nordeste 8 Norte 0 -- -- 31
2019-06-15 21:00:00 21.7 5 Norte 14 Noroeste 0 -- -- 26
2019-06-15 20:00:00 22.7 9 Noroeste 17 Oeste 0 -- -- 25
2019-06-15 19:00:00 24 7 Oeste 20 Oeste 0 -- -- 25
2019-06-15 18:00:00 23.1 10 Oeste 23 Oeste 0 -- -- 26
2019-06-15 17:00:00 22.2 8 Oeste 27 Noroeste 0 -- -- 28
2019-06-15 16:00:00 21.9 8 Oeste 22 Oeste 0 -- -- 30
2019-06-15 15:00:00 20.3 8 Norte 24 Oeste 0 -- -- 34
2019-06-15 14:00:00 18.8 11 Oeste 32 Nordeste 0 -- -- 38
2019-06-15 13:00:00 17.7 8 Sudoeste 17 Sudoeste 0 -- -- 41
2019-06-15 12:00:00 16 6 Sudoeste 17 Sudoeste 0 -- -- 48
2019-06-15 11:00:00 15.4 8 Sudoeste 17 Sudoeste 0 -- -- 53
2019-06-15 10:00:00 13.1 11 Sudoeste 22 Sudoeste 0 -- -- 63
2019-06-15 09:00:00 11.3 11 Sudoeste 17 Sur 0 -- -- 70
2019-06-15 08:00:00 9.1 10 Sudoeste 14 Sur 0 -- -- 78
2019-06-15 07:00:00 6.5 11 Sudoeste 15 Sudoeste 0 -- -- 85
2019-06-15 06:00:00 7.5 7 Sudoeste 22 Sur 0 -- -- 80
2019-06-15 05:00:00 7.8 18 Sudoeste 30 Sudoeste 0 -- -- 79
2019-06-15 04:00:00 9 14 Sudoeste 21 Sudoeste 0 -- -- 72
2019-06-15 03:00:00 7.8 8 Sudoeste 13 Sudoeste 0 -- -- 75
2019-06-15 02:00:00 9.2 10 Sudoeste 13 Sudoeste 0 -- -- 68
2019-06-15 01:00:00 10.4 8 Sudoeste 21 Oeste 0 -- -- 60
2019-06-15 00:00:00 12.7 14 Oeste 27 Oeste 0 -- -- 51
2019-06-14 23:00:00 14.6 24 Oeste 33 Oeste 0 -- -- 44
2019-06-14 22:00:00 16.3 21 Oeste 38 Oeste 0 -- -- 38
2019-06-14 21:00:00 18.2 24 Oeste 48 Oeste 0 -- -- 34
2019-06-14 20:00:00 19.8 27 Sudoeste 43 Sudoeste 0 -- -- 31
2019-06-14 19:00:00 19.9 28 Sudoeste 49 Sudoeste 0 -- -- 31
2019-06-14 18:00:00 21 32 Sudoeste 53 Sudoeste 0 -- -- 30
2019-06-14 17:00:00 22 30 Sudoeste 52 Sudoeste 0 -- -- 27
2019-06-14 16:00:00 21.8 33 Sudoeste 50 Sudoeste 0 -- -- 28
2019-06-14 15:00:00 21.8 28 Sudoeste 44 Sudoeste 0 -- -- 21
2019-06-14 14:00:00 21.6 25 Sudoeste 43 Sudoeste 0 -- -- 27
2019-06-14 13:00:00 21 22 Sur 45 Sudoeste 0 -- -- 30
2019-06-14 12:00:00 20.1 23 Sudoeste 35 Sudoeste 0 -- -- 33
2019-06-14 11:00:00 18.6 23 Sudoeste 37 Sudoeste 0 -- -- 37
2019-06-14 10:00:00 15.3 13 Sudoeste 21 Sudoeste 0 -- -- 50
2019-06-14 09:00:00 12.1 14 Sudoeste 22 Sudoeste 0 -- -- 59
2019-06-14 08:00:00 8.6 14 Sudoeste 19 Sudoeste 0 -- -- 68
2019-06-14 07:00:00 5.5 6 Sur 9 Sur 0 -- -- 74
2019-06-14 06:00:00 5.8 6 Sudoeste 14 Sudoeste 0 -- -- 70
2019-06-14 05:00:00 7 14 Sudoeste 18 Sudoeste 0 -- -- 66
2019-06-14 04:00:00 7.2 6 Sudoeste 9 Sur 0 -- -- 66
2019-06-14 03:00:00 8.5 4 Sur 9 Sudoeste 0 -- -- 58
2019-06-14 02:00:00 9.4 6 Sudoeste 8 Sudoeste 0 -- -- 52
2019-06-14 01:00:00 11.3 0 Calma 12 Oeste 0 -- -- 49
2019-06-14 00:00:00 12.8 6 Noroeste 9 Noroeste 0 -- -- 45
2019-06-13 23:00:00 15.6 3 Norte 20 Oeste 0 -- -- 38
2019-06-13 22:00:00 18.9 14 Oeste 28 Sudoeste 0 -- -- 32
2019-06-13 21:00:00 22.5 19 Sudoeste 36 Sudoeste 0 -- -- 16
2019-06-13 20:00:00 23.8 23 Sudoeste 42 Sudoeste 0 -- -- 13
2019-06-13 19:00:00 24.3 30 Sudoeste 46 Sudoeste 0 -- -- 12
2019-06-13 18:00:00 24.6 30 Sudoeste 50 Sudoeste 0 -- -- 14
2019-06-13 17:00:00 25.1 26 Sudoeste 54 Sudoeste 0 -- -- 16
2019-06-13 16:00:00 24.3 18 Sudoeste 36 Sudoeste 0 -- -- 20
2019-06-13 15:00:00 22.6 18 Sudoeste 31 Sudoeste 0 -- -- 23
2019-06-13 14:00:00 21.5 10 Sudoeste 30 Sudoeste 0 -- -- 26
2019-06-13 13:00:00 19.9 9 Sudoeste 20 Sudoeste 0 -- -- 30
2019-06-13 12:00:00 18.6 6 Sudoeste 19 Sur 0 -- -- 36
2019-06-13 11:00:00 15.9 10 Sudoeste 18 Sudoeste 0 -- -- 45
2019-06-13 10:00:00 13.5 8 Sudoeste 15 Sudoeste 0 -- -- 53
2019-06-13 09:00:00 10.5 11 Sudoeste 17 Sudoeste 0 -- -- 60
2019-06-13 08:00:00 7.6 9 Sudoeste 13 Sudoeste 0 -- -- 62
2019-06-13 07:00:00 4.8 8 Sudoeste 16 Sudoeste 0 -- -- 70
2019-06-13 06:00:00 4.3 8 Sudoeste 15 Sudoeste 0 -- -- 72
2019-06-13 05:00:00 5.8 11 Sudoeste 18 Sudoeste 0 -- -- 59
2019-06-13 04:00:00 5.8 9 Sudoeste 12 Sudoeste 0 -- -- 60
2019-06-13 03:00:00 7.1 10 Sudoeste 12 Sudoeste 0 -- -- 56
2019-06-13 02:00:00 8.7 9 Oeste 13 Oeste 0 -- -- 44
2019-06-13 01:00:00 9.3 6 Noroeste 21 Nordeste 0 -- -- 44
2019-06-13 00:00:00 10.8 6 Oeste 7 Oeste 0 -- -- 42
2019-06-12 23:00:00 13.3 4 Norte 12 Norte 0 -- -- 33
2019-06-12 22:00:00 16.6 10 Norte 16 Noroeste 0 -- -- 28
2019-06-12 21:00:00 20.1 12 Noroeste 18 Oeste 0 -- -- 23
2019-06-12 20:00:00 22.2 9 Oeste 24 Oeste 0 -- -- 21
2019-06-12 19:00:00 22.3 14 Oeste 38 Sudoeste 0 -- -- 21
2019-06-12 18:00:00 22.3 16 Sudoeste 37 Sudoeste 0 -- -- 19
2019-06-12 17:00:00 22.1 14 Sudoeste 37 Sudoeste 0 -- -- 18
2019-06-12 16:00:00 20.7 9 Oeste 26 Oeste 0 -- -- 22
2019-06-12 15:00:00 19.7 11 Sudoeste 25 Sudoeste 0 -- -- 25
2019-06-12 14:00:00 18.5 12 Oeste 18 Oeste 0 -- -- 31
2019-06-12 13:00:00 17 5 Sudeste 14 Norte 0 -- -- 34
2019-06-12 12:00:00 15.6 6 Norte 17 Norte 0 -- -- 37
2019-06-12 11:00:00 14.2 4 Norte 15 Este 0 -- -- 42
2019-06-12 10:00:00 12.6 7 Nordeste 14 Nordeste 0 -- -- 47
2019-06-12 09:00:00 11.7 3 Este 6 Este 0 -- -- 51
2019-06-12 08:00:00 9.4 0 Calma 10 Noroeste 0 -- -- 57
2019-06-12 07:00:00 2 8 Noroeste 10 Noroeste 0 -- -- 84
2019-06-12 06:00:00 2.7 4 Sudoeste 7 Oeste 0 -- -- 79
2019-06-12 05:00:00 3 5 Sudoeste 6 Sudoeste 0 -- -- 77
2019-06-12 04:00:00 4.7 0 Calma 8 Noroeste 0 -- -- 68
2019-06-12 03:00:00 4.9 8 Noroeste 11 Noroeste 0 -- -- 69
2019-06-12 02:00:00 7.4 5 Norte 12 Norte 0 -- -- 60
2019-06-12 01:00:00 9.2 7 Norte 18 Norte 0 -- -- 55
2019-06-12 00:00:00 11.3 14 Norte 21 Norte 0 -- -- 49
2019-06-11 23:00:00 11.8 8 Norte 19 Norte 0 -- -- 47
2019-06-11 22:00:00 13.6 13 Noroeste 28 Noroeste 0 -- -- 38
2019-06-11 21:00:00 16.5 19 Noroeste 33 Noroeste 0 -- -- 31
2019-06-11 20:00:00 18.2 21 Noroeste 32 Noroeste 0 -- -- 28
2019-06-11 19:00:00 19 19 Norte 44 Oeste 0 -- -- 24
2019-06-11 18:00:00 19.1 22 Noroeste 48 Noroeste 0 -- -- 23
2019-06-11 17:00:00 18.9 21 Norte 37 Norte 0 -- -- 23
2019-06-11 16:00:00 18.3 19 Norte 39 Noroeste 0 -- -- 25
2019-06-11 15:00:00 17.8 17 Noroeste 35 Noroeste 0 -- -- 26
2019-06-11 14:00:00 16.8 20 Noroeste 35 Noroeste 0 -- -- 29
2019-06-11 13:00:00 15.8 20 Norte 31 Norte 0 -- -- 36
2019-06-11 12:00:00 14.5 10 Noroeste 23 Norte 0 -- -- 49
2019-06-11 11:00:00 12.9 10 Norte 27 Noroeste 0 -- -- 56
2019-06-11 10:00:00 11.3 21 Noroeste 28 Noroeste 0 -- -- 61
2019-06-11 09:00:00 10.6 9 Norte 14 Norte 0 -- -- 72
2019-06-11 08:00:00 10.1 12 Norte 17 Norte 0 -- -- 70
2019-06-11 07:00:00 9.9 9 Norte 13 Norte 0 -- -- 70
2019-06-11 06:00:00 9.7 9 Noroeste 13 Noroeste 0 -- -- 72
2019-06-11 05:00:00 9.6 7 Norte 13 Norte 0 -- -- 74
2019-06-11 04:00:00 10.7 5 Norte 21 Noroeste 0 -- -- 68
2019-06-11 03:00:00 11.9 14 Noroeste 23 Noroeste 0 -- -- 65
2019-06-11 02:00:00 13.5 17 Noroeste 24 Noroeste 0 -- -- 60
2019-06-11 01:00:00 14.1 16 Noroeste 26 Noroeste 0 -- -- 50
2019-06-11 00:00:00 15 15 Oeste 31 Oeste 0 -- -- 39
2019-06-10 23:00:00 17.7 21 Oeste 32 Oeste 0 -- -- 29
2019-06-10 22:00:00 18.3 24 Oeste 35 Oeste 0 -- -- 27
2019-06-10 21:00:00 21.1 20 Oeste 31 Oeste 0 -- -- 29
2019-06-10 20:00:00 23.1 9 Oeste 21 Oeste 0 -- -- 25
2019-06-10 19:00:00 23.2 11 Oeste 25 Oeste 0 -- -- 23
2019-06-10 18:00:00 22.8 15 Oeste 28 Oeste 0 -- -- 27
2019-06-10 17:00:00 22.1 10 Noroeste 28 Oeste 0 -- -- 27
2019-06-10 16:00:00 21 7 Sur 24 Oeste 0 -- -- 30
2019-06-10 15:00:00 20.1 9 Noroeste 22 Oeste 0 -- -- 31
2019-06-10 14:00:00 18.8 9 Oeste 19 Oeste 0 -- -- 38
2019-06-10 13:00:00 18.4 4 Sur 19 Norte 0 -- -- 43
2019-06-10 12:00:00 17.1 8 Noroeste 17 Oeste 0 -- -- 47
2019-06-10 11:00:00 15 7 Noroeste 16 Norte 0 -- -- 57
2019-06-10 10:00:00 13.1 5 Norte 13 Nordeste 0 -- -- 66
2019-06-10 09:00:00 10.8 9 Norte 13 Norte 0 -- -- 75
2019-06-10 08:00:00 8.4 4 Noroeste 8 Noroeste 0 -- -- 83
2019-06-10 07:00:00 4.9 5 Noroeste 9 Noroeste 0 -- -- 93
2019-06-10 06:00:00 5.4 4 Noroeste 9 Noroeste 0 -- -- 93
2019-06-10 05:00:00 6.1 6 Noroeste 7 Norte 0 -- -- 90
2019-06-10 04:00:00 7.4 5 Norte 10 Norte 0 -- -- 89
2019-06-10 03:00:00 8.4 6 Norte 9 Noroeste 0 -- -- 84
2019-06-10 02:00:00 10.4 8 Norte 18 Norte 0 -- -- 78
2019-06-10 01:00:00 11.5 12 Norte 21 Norte 0 -- -- 74
2019-06-10 00:00:00 12.9 12 Noroeste 21 Oeste 0 -- -- 56
2019-06-09 23:00:00 15.3 15 Oeste 22 Oeste 0 -- -- 48
2019-06-09 22:00:00 17.3 18 Oeste 35 Oeste 0 -- -- 40
2019-06-09 21:00:00 19.4 23 Oeste 41 Oeste 0 -- -- 35
2019-06-09 20:00:00 21.2 24 Oeste 39 Oeste 0 -- -- 30
2019-06-09 19:00:00 22.9 23 Sudoeste 33 Oeste 0 -- -- 27
2019-06-09 18:00:00 23.9 21 Oeste 39 Sudoeste 0 -- -- 23
2019-06-09 17:00:00 23.7 22 Sudoeste 41 Sudoeste 0 -- -- 25
2019-06-09 16:00:00 23.3 21 Oeste 35 Oeste 0 -- -- 26
2019-06-09 15:00:00 22.4 20 Sudoeste 32 Sudoeste 0 -- -- 31
2019-06-09 14:00:00 22 15 Oeste 32 Sudoeste 0 -- -- 34
2019-06-09 13:00:00 20.8 14 Oeste 24 Sudoeste 0 -- -- 38
2019-06-09 12:00:00 19.9 11 Oeste 22 Oeste 0 -- -- 42
2019-06-09 11:00:00 17.4 14 Oeste 30 Sudoeste 0 -- -- 54
2019-06-09 10:00:00 14.9 12 Sudoeste 22 Sudoeste 0 -- -- 63
2019-06-09 09:00:00 12.5 13 Sudoeste 19 Sudoeste 0 -- -- 72
2019-06-09 08:00:00 10.4 8 Sudoeste 13 Sudoeste 0 -- -- 78
2019-06-09 07:00:00 8.1 6 Sudoeste 18 Sudoeste 0 -- -- 85
2019-06-09 06:00:00 9.1 14 Sudoeste 23 Sudoeste 0 -- -- 81
2019-06-09 05:00:00 9.6 12 Sudoeste 17 Sur 0 -- -- 71
2019-06-09 04:00:00 10.3 11 Sudoeste 15 Sudoeste 0 -- -- 64
2019-06-09 03:00:00 11.7 9 Sudoeste 24 Sudoeste 0 -- -- 61
2019-06-09 02:00:00 12.5 13 Sudoeste 21 Oeste 0 -- -- 54
2019-06-09 01:00:00 15.1 15 Oeste 19 Oeste 0 -- -- 43
2019-06-09 00:00:00 17.1 8 Oeste 17 Oeste 0 -- -- 38
2019-06-08 23:00:00 18.3 6 Sudoeste 9 Sudoeste 0 -- -- 38
2019-06-08 22:00:00 19.1 4 Oeste 16 Noroeste 0 -- -- 36
2019-06-08 21:00:00 21.7 11 Noroeste 24 Noroeste 0 -- -- 27
2019-06-08 20:00:00 23.7 16 Oeste 29 Oeste 0 -- -- 25
2019-06-08 19:00:00 24.7 21 Noroeste 38 Noroeste 0 -- -- 23
2019-06-08 18:00:00 26.2 18 Oeste 39 Este 0 -- -- 22
2019-06-08 17:00:00 26.2 14 Sudeste 36 Sudeste 0 -- -- 21
2019-06-08 16:00:00 27 8 Noroeste 27 Nordeste 0 -- -- 22
2019-06-08 15:00:00 24.3 16 Este 28 Este 0 -- -- 25
2019-06-08 14:00:00 23.3 4 Nordeste 19 Norte 0 -- -- 26
2019-06-08 13:00:00 20.8 8 Este 19 Nordeste 0 -- -- 29
2019-06-08 12:00:00 18.3 11 Norte 21 Norte 0 -- -- 33
2019-06-08 11:00:00 16.2 8 Nordeste 13 Nordeste 0 -- -- 40
2019-06-08 10:00:00 12.9 7 Nordeste 12 Nordeste 0 -- -- 51
2019-06-08 09:00:00 10.7 4 Norte 6 Norte 0 -- -- 62
2019-06-08 08:00:00 8.3 0 Calma -- -- 0 -- -- 76
2019-06-08 07:00:00 2.2 0 Calma 2 Sudoeste 0 -- -- 91
2019-06-08 06:00:00 2.4 0 Calma 5 Sudoeste 0 -- -- 91
2019-06-08 05:00:00 3 0 Calma 5 Sur 0 -- -- 91
2019-06-08 04:00:00 4.2 2 Sudeste 5 Sur 0 -- -- 83
2019-06-08 03:00:00 5.3 3 Sudoeste 3 Sudoeste 0 -- -- 80
2019-06-08 02:00:00 5.8 5 Noroeste 10 Oeste 0 -- -- 80
2019-06-08 01:00:00 7.5 7 Oeste 10 Noroeste 0 -- -- 71
2019-06-08 00:00:00 8.1 3 Oeste 7 Oeste 0 -- -- 68
2019-06-07 23:00:00 9.5 4 Oeste 10 Oeste 0 -- -- 65
2019-06-07 22:00:00 11.8 9 Noroeste 18 Noroeste 0 -- -- 54
2019-06-07 21:00:00 16.3 13 Oeste 28 Sudoeste 0 -- -- 36
2019-06-07 20:00:00 17.5 16 Sudoeste 27 Oeste 0 -- -- 32
2019-06-07 19:00:00 18.7 13 Sudoeste 32 Oeste 0 -- -- 30
2019-06-07 18:00:00 17.9 13 Sudoeste 29 Oeste 0 -- -- 31
2019-06-07 17:00:00 17.3 15 Oeste 29 Oeste 0 -- -- 34
2019-06-07 16:00:00 17.7 18 Oeste 40 Sudoeste 0 -- -- 35
2019-06-07 15:00:00 16.3 17 Sudoeste 35 Sudoeste 0 -- -- 39
2019-06-07 14:00:00 15.5 19 Oeste 37 Sudoeste 0 -- -- 45
2019-06-07 13:00:00 14.5 23 Oeste 36 Oeste 0 -- -- 45
2019-06-07 12:00:00 13.4 21 Oeste 37 Sudoeste 0 -- -- 53
2019-06-07 11:00:00 11.7 21 Oeste 35 Sudoeste 0 -- -- 61
2019-06-07 10:00:00 10.7 26 Sudoeste 38 Sudoeste 0 -- -- 67
2019-06-07 09:00:00 9.4 22 Sudoeste 36 Sudoeste 0 -- -- 76
2019-06-07 08:00:00 7.8 22 Sudoeste 33 Sudoeste 0 -- -- 83
2019-06-07 07:00:00 7.5 14 Sudoeste 32 Sudoeste 0 -- -- 88
2019-06-07 06:00:00 7 21 Sudoeste 33 Sudoeste 0 -- -- 89
2019-06-07 05:00:00 6.9 17 Sudoeste 24 Sudoeste 0 -- -- 89
2019-06-07 04:00:00 7.1 14 Sudoeste 26 Sudoeste 0 -- -- 89
2019-06-07 03:00:00 8 16 Sudoeste 40 Sudoeste 0 -- -- 87
2019-06-07 02:00:00 9 11 Sur 24 Sudoeste 0.2 -- -- 91
2019-06-07 01:00:00 8.6 19 Sudoeste 46 Sudoeste 0.4 -- -- 89
2019-06-07 00:00:00 9.8 25 Oeste 57 Sudoeste 1.4 -- -- 91
2019-06-06 23:00:00 15.6 35 Sur 64 Sur 0 -- -- 58
2019-06-06 22:00:00 17.3 35 Sur 60 Sur 0 -- -- 45
2019-06-06 21:00:00 18.7 32 Sur 60 Sur 0 -- -- 38
2019-06-06 20:00:00 19.7 37 Sur 55 Sur 0 -- -- 35
2019-06-06 19:00:00 21.2 39 Sur 60 Sur 0 -- -- 33
2019-06-06 18:00:00 22.4 34 Sur 53 Sur 0 -- -- 29
2019-06-06 17:00:00 22.1 35 Sur 51 Sur 0 -- -- 28
2019-06-06 16:00:00 21.8 32 Sur 50 Sur 0 -- -- 27
2019-06-06 15:00:00 20.7 24 Sudoeste 49 Sudoeste 0 -- -- 27
2019-06-06 14:00:00 19.2 22 Sur 42 Sudoeste 0 -- -- 27
2019-06-06 13:00:00 17.4 17 Sur 31 Sur 0 -- -- 31
2019-06-06 12:00:00 15.4 12 Sur 33 Sur 0 -- -- 41
2019-06-06 11:00:00 15.4 5 Sur 15 Sur 0 -- -- 44
2019-06-06 10:00:00 13.2 5 Sudeste 12 Sudoeste 0 -- -- 51
2019-06-06 09:00:00 10.6 6 Sudoeste 15 Sudoeste 0 -- -- 59
2019-06-06 08:00:00 6.9 8 Sudoeste 13 Sudoeste 0 -- -- 72
2019-06-06 07:00:00 4.7 11 Sudoeste 13 Sudoeste 0 -- -- 81
2019-06-06 06:00:00 5.2 8 Sudoeste 12 Sudoeste 0 -- -- 79
2019-06-06 05:00:00 6.1 8 Sudoeste 11 Sudoeste 0 -- -- 73
2019-06-06 04:00:00 6.3 9 Sudoeste 13 Sudoeste 0 -- -- 74
2019-06-06 03:00:00 7 11 Sudoeste 15 Sudoeste 0 -- -- 67
2019-06-06 02:00:00 9 8 Sudoeste 22 Oeste 0 -- -- 61
2019-06-06 01:00:00 11.8 10 Oeste 22 Oeste 0 -- -- 51
2019-06-06 00:00:00 11.9 14 Oeste 19 Oeste 0 -- -- 49
2019-06-05 23:00:00 12.4 14 Oeste 25 Oeste 0 -- -- 49
2019-06-05 22:00:00 13.8 16 Oeste 31 Oeste 0 -- -- 44
2019-06-05 21:00:00 15.3 21 Oeste 35 Oeste 0 -- -- 39
2019-06-05 20:00:00 17.5 24 Oeste 39 Oeste 0 -- -- 34
2019-06-05 19:00:00 17 26 Oeste 37 Sudoeste 0 -- -- 36
2019-06-05 18:00:00 18.7 24 Sudoeste 43 Oeste 0 -- -- 27
2019-06-05 17:00:00 18.6 26 Oeste 39 Oeste 0 -- -- 28
2019-06-05 16:00:00 18.2 25 Sudoeste 44 Oeste 0 -- -- 30
2019-06-05 15:00:00 17.4 23 Oeste 38 Oeste 0 -- -- 34
2019-06-05 14:00:00 16.6 21 Oeste 42 Oeste 0 -- -- 38
2019-06-05 13:00:00 15.8 22 Oeste 38 Sudoeste 0 -- -- 42
2019-06-05 12:00:00 14.7 20 Oeste 37 Oeste 0 -- -- 47
2019-06-05 11:00:00 13.1 21 Oeste 34 Oeste 0 -- -- 57
2019-06-05 10:00:00 12.4 23 Oeste 37 Sudoeste 0 -- -- 65
2019-06-05 09:00:00 8.8 19 Oeste 30 Oeste 0 -- -- 80
2019-06-05 08:00:00 7.7 16 Sudoeste 23 Oeste 0 -- -- 85
2019-06-05 07:00:00 7.7 11 Sudoeste 30 Oeste 0 -- -- 86
2019-06-05 06:00:00 9 17 Oeste 28 Oeste 0 -- -- 81
2019-06-05 05:00:00 9.5 17 Oeste 24 Oeste 0 -- -- 81
2019-06-05 04:00:00 9.6 6 Oeste 24 Oeste 0.4 -- -- 90
2019-06-05 03:00:00 10.4 24 Oeste 40 Oeste 0 -- -- 79
2019-06-05 02:00:00 12.2 21 Oeste 37 Oeste 0 -- -- 68
2019-06-05 01:00:00 14.7 26 Oeste 37 Oeste 0 -- -- 50
2019-06-05 00:00:00 15.6 11 Oeste 26 Oeste 0 -- -- 54
2019-06-04 23:00:00 15.5 12 Oeste 24 Oeste 0 -- -- 58
2019-06-04 22:00:00 17.2 15 Oeste 32 Oeste 0 -- -- 53
2019-06-04 21:00:00 18.5 20 Oeste 36 Oeste 0 -- -- 50
2019-06-04 20:00:00 19.9 27 Oeste 46 Oeste 0 -- -- 49
2019-06-04 19:00:00 20.5 33 Oeste 48 Oeste 0 -- -- 49
2019-06-04 18:00:00 22 36 Oeste 53 Oeste 0 -- -- 47
2019-06-04 17:00:00 24.9 27 Sudoeste 50 Sudoeste 0 -- -- 32
2019-06-04 16:00:00 24 30 Sudoeste 45 Oeste 0 -- -- 34
2019-06-04 15:00:00 23.3 24 Sudoeste 41 Oeste 0 -- -- 37
2019-06-04 14:00:00 21.8 22 Sudoeste 38 Sudoeste 0 -- -- 40
2019-06-04 13:00:00 21.1 20 Oeste 39 Oeste 0 -- -- 41
2019-06-04 12:00:00 19.4 21 Sudoeste 32 Sudoeste 0 -- -- 48
2019-06-04 11:00:00 17.9 19 Sudoeste 34 Sudoeste 0 -- -- 57
2019-06-04 10:00:00 15.7 21 Sudoeste 29 Sudoeste 0 -- -- 66
2019-06-04 09:00:00 13.7 18 Sudoeste 32 Sudoeste 0 -- -- 76
2019-06-04 08:00:00 12.8 9 Sudoeste 16 Sudoeste 0 -- -- 85
2019-06-04 07:00:00 11.2 7 Sudoeste 13 Sudoeste 0 -- -- 91
2019-06-04 06:00:00 11.1 6 Sudoeste 13 Sudoeste 0 -- -- 88
2019-06-04 05:00:00 12.2 7 Sudoeste 10 Sudoeste 0 -- -- 85
2019-06-04 04:00:00 14.1 10 Sudoeste 18 Sudoeste 0 -- -- 79
2019-06-04 03:00:00 15.7 15 Sudoeste 20 Sudoeste 0 -- -- 75
2019-06-04 02:00:00 15 8 Sudoeste 12 Sudoeste 0 -- -- 72
2019-06-04 01:00:00 17.7 11 Sudoeste 21 Sudoeste 0 -- -- 61
2019-06-04 00:00:00 19.9 14 Sudoeste 25 Sudoeste 0 -- -- 41
2019-06-03 23:00:00 23.5 21 Sur 30 Sur 0 -- -- 26
2019-06-03 22:00:00 24.6 18 Sur 38 Sur 0 -- -- 19
2019-06-03 21:00:00 27.4 26 Sur 44 Sur 0 -- -- 15
2019-06-03 20:00:00 28.7 31 Sudoeste 46 Sudoeste 0 -- -- 16
2019-06-03 19:00:00 29.8 27 Sur 43 Sur 0 -- -- 18
2019-06-03 18:00:00 30.5 28 Sudoeste 39 Sudoeste 0 -- -- 16
2019-06-03 17:00:00 31 19 Sudoeste 41 Sudoeste 0 -- -- 15
2019-06-03 16:00:00 30.3 24 Sudoeste 41 Sudoeste 0 -- -- 15
2019-06-03 15:00:00 28.9 22 Sudoeste 38 Sudoeste 0 -- -- 17
2019-06-03 14:00:00 28.6 10 Oeste 26 Sudoeste 0 -- -- 18
2019-06-03 13:00:00 27.6 8 Oeste 22 Sur 0 -- -- 23
2019-06-03 12:00:00 25.8 9 Sudoeste 18 Oeste 0 -- -- 23
2019-06-03 11:00:00 24.8 5 Sudoeste 14 Sur 0 -- -- 23
2019-06-03 10:00:00 20.9 9 Sudoeste 14 Sudoeste 0 -- -- 38
2019-06-03 09:00:00 19.6 8 Sudoeste 14 Sudoeste 0 -- -- 43
2019-06-03 08:00:00 16 8 Sur 10 Sur 0 -- -- 52
2019-06-03 07:00:00 14.4 4 Sudeste 7 Sur 0 -- -- 56
2019-06-03 06:00:00 14.5 2 Sur 8 Sudeste 0 -- -- 55
2019-06-03 05:00:00 15.4 4 Sur 13 Sudoeste 0 -- -- 53
2019-06-03 04:00:00 15.5 9 Sudoeste 14 Sudoeste 0 -- -- 54
2019-06-03 03:00:00 17.6 6 Sur 13 Sudoeste 0 -- -- 45
2019-06-03 02:00:00 16.6 12 Sudoeste 14 Sudoeste 0 -- -- 49
2019-06-03 01:00:00 18.1 12 Sudoeste 16 Sudoeste 0 -- -- 42
2019-06-03 00:00:00 19.3 6 Oeste 13 Oeste 0 -- -- 39
2019-06-02 23:00:00 20.8 13 Oeste 16 Oeste 0 -- -- 34
2019-06-02 22:00:00 22.6 6 Oeste 16 Oeste 0 -- -- 31
2019-06-02 21:00:00 27 15 Oeste 30 Oeste 0 -- -- 24
2019-06-02 20:00:00 29.7 19 Oeste 31 Oeste 0 -- -- 20
2019-06-02 19:00:00 30.3 20 Oeste 40 Oeste 0 -- -- 19
2019-06-02 18:00:00 31.6 27 Oeste 35 Oeste 0 -- -- 18
2019-06-02 17:00:00 31.9 18 Sudoeste 40 Sudoeste 0 -- -- 17
2019-06-02 16:00:00 31.6 19 Sur 38 Sudoeste 0 -- -- 18
2019-06-02 15:00:00 31.7 15 Sudoeste 36 Oeste 0 -- -- 20
2019-06-02 14:00:00 30.9 18 Sudoeste 32 Oeste 0 -- -- 20
2019-06-02 13:00:00 29.8 14 Sur 24 Sur 0 -- -- 20
2019-06-02 12:00:00 28.8 10 Sur 21 Sudoeste 0 -- -- 20
2019-06-02 11:00:00 27.5 10 Sudoeste 19 Sudoeste 0 -- -- 24
2019-06-02 10:00:00 25.1 12 Sudoeste 20 Sudoeste 0 -- -- 29
2019-06-02 09:00:00 21.9 14 Sudoeste 21 Sudoeste 0 -- -- 37
2019-06-02 08:00:00 18 15 Sudoeste 20 Sudoeste 0 -- -- 47
2019-06-02 07:00:00 15.2 13 Sudoeste 20 Sudoeste 0 -- -- 54
2019-06-02 06:00:00 14.9 12 Sudoeste 19 Sudoeste 0 -- -- 57
2019-06-02 05:00:00 14.8 13 Sudoeste 19 Sudoeste 0 -- -- 55
2019-06-02 04:00:00 14.6 8 Sudoeste 12 Sudoeste 0 -- -- 58
2019-06-02 03:00:00 16.6 10 Sur 17 Sudoeste 0 -- -- 47
2019-06-02 02:00:00 17.3 11 Sudoeste 18 Oeste 0 -- -- 49
2019-06-02 01:00:00 21.3 16 Oeste 26 Oeste 0 -- -- 37
2019-06-02 00:00:00 21.5 9 Sudoeste 21 Sur 0 -- -- 33
2019-06-01 23:00:00 20.8 3 Sur 5 Este 0 -- -- 38
2019-06-01 22:00:00 23.9 5 Nordeste 10 Norte 0 -- -- 29
2019-06-01 21:00:00 28.8 6 Norte 19 Noroeste 0 -- -- 23
2019-06-01 20:00:00 30.7 10 Noroeste 17 Noroeste 0 -- -- 18
2019-06-01 19:00:00 32.9 11 Noroeste 25 Noroeste 0 -- -- 14
2019-06-01 18:00:00 33.7 13 Noroeste 25 Oeste 0 -- -- 15
2019-06-01 17:00:00 33.2 6 Noroeste 23 Sudoeste 0 -- -- 14
2019-06-01 16:00:00 32.3 10 Norte 22 Oeste 0 -- -- 15
2019-06-01 15:00:00 31.5 8 Sur 26 Oeste 0 -- -- 15
2019-06-01 14:00:00 30.8 10 Noroeste 17 Noroeste 0 -- -- 17
2019-06-01 13:00:00 30.3 6 Oeste 14 Noroeste 0 -- -- 19
2019-06-01 12:00:00 28.8 6 Noroeste 13 Oeste 0 -- -- 23
2019-06-01 11:00:00 27.3 3 Sudoeste 9 Sudoeste 0 -- -- 24
2019-06-01 10:00:00 24 3 Sudoeste 8 Sur 0 -- -- 28
2019-06-01 09:00:00 19.3 5 Sur 10 Sur 0 -- -- 34
2019-06-01 08:00:00 14.6 6 Sur 10 Sur 0 -- -- 44
2019-06-01 07:00:00 9.7 9 Sur 18 Este 0 -- -- 54
2019-06-01 06:00:00 9.5 3 Sudoeste 6 Sur 0 -- -- 59
2019-06-01 05:00:00 9.6 3 Sudoeste 6 Sur 0 -- -- 64
2019-06-01 04:00:00 11.2 4 Sudeste 7 Este 0 -- -- 61
2019-06-01 03:00:00 11.8 2 Sur 4 Sur 0 -- -- 55
2019-06-01 02:00:00 12.6 0 Calma 5 Sur 0 -- -- 59
2019-06-01 01:00:00 14.5 2 Sudeste 4 Este 0 -- -- 57
2019-06-01 00:00:00 16.3 0 Calma 7 Noroeste 0 -- -- 44
2019-05-31 23:00:00 17.7 8 Noroeste 10 Noroeste 0 -- -- 40
2019-05-31 22:00:00 20.9 9 Oeste 9 Oeste 0 -- -- 36
2019-05-31 21:00:00 28.2 6 Oeste 15 Noroeste 0 -- -- 23
2019-05-31 20:00:00 31.7 5 Sudoeste 18 Noroeste 0 -- -- 16
2019-05-31 19:00:00 32.3 6 Noroeste 48 Nordeste 0 -- -- 13
2019-05-31 18:00:00 31.9 8 Sur 19 Noroeste 0 -- -- 15
2019-05-31 17:00:00 31 10 Noroeste 23 Noroeste 0 -- -- 13
2019-05-31 16:00:00 30.8 7 Norte 21 Noroeste 0 -- -- 15
2019-05-31 15:00:00 29.4 11 Noroeste 23 Noroeste 0 -- -- 15
2019-05-31 14:00:00 28.8 7 Sudoeste 23 Norte 0 -- -- 18
2019-05-31 13:00:00 27.6 10 Norte 21 Noroeste 0 -- -- 22
2019-05-31 12:00:00 27.2 7 Norte 18 Nordeste 0 -- -- 24
2019-05-31 11:00:00 24.3 14 Norte 19 Norte 0 -- -- 29
2019-05-31 10:00:00 21.6 9 Norte 14 Norte 0 -- -- 37
2019-05-31 09:00:00 17.9 6 Nordeste 15 Nordeste 0 -- -- 44
2019-05-31 08:00:00 13.2 6 Norte 12 Norte 0 -- -- 53
2019-05-31 07:00:00 8.7 3 Nordeste 8 Este 0 -- -- 68
2019-05-31 06:00:00 8.5 5 Nordeste 6 Nordeste 0 -- -- 71
2019-05-31 05:00:00 9.1 2 Este 4 Noroeste 0 -- -- 66
2019-05-31 04:00:00 9.6 3 Sudoeste 8 Sur 0 -- -- 65
2019-05-31 03:00:00 10.1 3 Oeste 6 Sudoeste 0 -- -- 68
2019-05-31 02:00:00 11.5 4 Sudoeste 7 Nordeste 0 -- -- 62
2019-05-31 01:00:00 14.9 4 Nordeste 13 Nordeste 0 -- -- 49
2019-05-31 00:00:00 17.2 5 Nordeste 14 Norte 0 -- -- 42
2019-05-30 23:00:00 20.6 11 Norte 18 Norte 0 -- -- 34
2019-05-30 22:00:00 22.9 14 Norte 26 Norte 0 -- -- 30
2019-05-30 21:00:00 26.4 17 Norte 29 Nordeste 0 -- -- 23
2019-05-30 20:00:00 28.5 13 Norte 30 Noroeste 0 -- -- 20
2019-05-30 19:00:00 29.2 13 Norte 30 Norte 0 -- -- 18
2019-05-30 18:00:00 29.8 10 Nordeste 29 Norte 0 -- -- 18
2019-05-30 17:00:00 29.1 14 Norte 47 Sur 0 -- -- 20
2019-05-30 16:00:00 28.4 14 Nordeste 27 Nordeste 0 -- -- 21
2019-05-30 15:00:00 27.5 9 Nordeste 24 Nordeste 0 -- -- 23
2019-05-30 14:00:00 25.5 10 Nordeste 22 Nordeste 0 -- -- 27
2019-05-30 13:00:00 23.8 13 Norte 22 Nordeste 0 -- -- 31
2019-05-30 12:00:00 21.6 9 Norte 19 Este 0 -- -- 36
2019-05-30 11:00:00 20 6 Nordeste 12 Nordeste 0 -- -- 42
2019-05-30 10:00:00 17.4 4 Este 10 Nordeste 0 -- -- 50
2019-05-30 09:00:00 13.8 4 Nordeste 8 Nordeste 0 -- -- 62
2019-05-30 08:00:00 11.3 0 Calma 4 Sur 0 -- -- 70
2019-05-30 07:00:00 5.7 0 Calma 9 Norte 0 -- -- 84
2019-05-30 06:00:00 5.7 4 Noroeste 5 Noroeste 0 -- -- 89
2019-05-30 05:00:00 6.4 3 Oeste 5 Nordeste 0 -- -- 86
2019-05-30 04:00:00 8 0 Calma 9 Nordeste 0 -- -- 81
2019-05-30 03:00:00 10.5 10 Nordeste 16 Nordeste 0 -- -- 72
2019-05-30 02:00:00 11.2 5 Este 15 Nordeste 0 -- -- 70
2019-05-30 01:00:00 11.7 7 Nordeste 18 Nordeste 0 -- -- 67
2019-05-30 00:00:00 13.4 10 Nordeste 21 Nordeste 0 -- -- 61
2019-05-29 23:00:00 15.7 13 Nordeste 19 Nordeste 0 -- -- 53
2019-05-29 22:00:00 17.8 13 Nordeste 23 Nordeste 0 -- -- 48
2019-05-29 21:00:00 20.7 15 Norte 32 Norte 0 -- -- 39
2019-05-29 20:00:00 22 19 Norte 32 Norte 0 -- -- 34
2019-05-29 19:00:00 22.6 19 Norte 33 Norte 0 -- -- 32
2019-05-29 18:00:00 23.4 19 Norte 47 Norte 0 -- -- 31
2019-05-29 17:00:00 23.1 20 Norte 36 Norte 0 -- -- 32
2019-05-29 16:00:00 22.1 17 Norte 37 Norte 0 -- -- 35
2019-05-29 15:00:00 22 23 Norte 36 Norte 0 -- -- 34
2019-05-29 14:00:00 20.6 20 Norte 36 Norte 0 -- -- 38
2019-05-29 13:00:00 19.1 13 Nordeste 30 Nordeste 0 -- -- 40
2019-05-29 12:00:00 17.1 13 Norte 28 Nordeste 0 -- -- 45
2019-05-29 11:00:00 14.7 16 Nordeste 26 Nordeste 0 -- -- 52
2019-05-29 10:00:00 13.3 11 Nordeste 21 Nordeste 0 -- -- 54
2019-05-29 09:00:00 11.2 10 Nordeste 16 Nordeste 0 -- -- 62
2019-05-29 08:00:00 10.2 2 Nordeste 6 Nordeste 0 -- -- 65
2019-05-29 07:00:00 4 0 Calma 0 Calma 0 -- -- 86
2019-05-29 06:00:00 4.7 0 Calma 4 Nordeste 0 -- -- 85
2019-05-29 05:00:00 5.6 2 Nordeste 8 Nordeste 0 -- -- 80
2019-05-29 04:00:00 7.2 6 Nordeste 14 Nordeste 0 -- -- 72
2019-05-29 03:00:00 8.8 11 Nordeste 17 Nordeste 0 -- -- 64
2019-05-29 02:00:00 9.8 13 Nordeste 24 Nordeste 0 -- -- 61
2019-05-29 01:00:00 10.9 12 Nordeste 26 Nordeste 0 -- -- 52
2019-05-29 00:00:00 12.5 13 Nordeste 32 Nordeste 0 -- -- 46
2019-05-28 23:00:00 14.3 22 Nordeste 39 Nordeste 0 -- -- 45
2019-05-28 22:00:00 16.4 26 Nordeste 44 Norte 0 -- -- 44
2019-05-28 21:00:00 20.8 11 Norte 25 Norte 0 -- -- 31
2019-05-28 20:00:00 22.2 12 Norte 24 Nordeste 0 -- -- 29
2019-05-28 19:00:00 22.5 14 Norte 31 Norte 0 -- -- 28
2019-05-28 18:00:00 23.1 16 Noroeste 33 Norte 0 -- -- 28
2019-05-28 17:00:00 22.3 18 Norte 35 Noroeste 0 -- -- 29
2019-05-28 16:00:00 21.6 18 Norte 30 Noroeste 0 -- -- 28
2019-05-28 15:00:00 20.8 15 Noroeste 29 Norte 0 -- -- 29
2019-05-28 14:00:00 19.3 15 Norte 29 Norte 0 -- -- 31
2019-05-28 13:00:00 17.8 16 Noroeste 28 Noroeste 0 -- -- 35
2019-05-28 12:00:00 16.5 13 Norte 25 Nordeste 0 -- -- 41
2019-05-28 11:00:00 15.2 12 Nordeste 23 Nordeste 0 -- -- 46
2019-05-28 10:00:00 13.4 15 Nordeste 27 Nordeste 0 -- -- 54
2019-05-28 09:00:00 11.7 12 Nordeste 18 Nordeste 0 -- -- 62
2019-05-28 08:00:00 8.9 6 Norte 10 Norte 0 -- -- 74
2019-05-28 07:00:00 7.2 5 Norte 13 Norte 0 -- -- 82
2019-05-28 06:00:00 7.5 9 Norte 14 Norte 0 -- -- 84
2019-05-28 05:00:00 8.2 6 Norte 11 Nordeste 0 -- -- 82
2019-05-28 04:00:00 9.1 4 Norte 12 Norte 0 -- -- 78
2019-05-28 03:00:00 10.2 7 Norte 13 Norte 0 -- -- 73
2019-05-28 02:00:00 11.6 7 Norte 19 Norte 0 -- -- 70
2019-05-28 01:00:00 13.6 16 Norte 28 Nordeste 0 -- -- 65
2019-05-28 00:00:00 15.4 23 Nordeste 34 Norte 0 -- -- 61
2019-05-27 23:00:00 18.3 26 Nordeste 36 Nordeste 0 -- -- 50
2019-05-27 22:00:00 20.4 10 Nordeste 15 Nordeste 0 -- -- 40
2019-05-27 21:00:00 22.7 8 Noroeste 21 Noroeste 0 -- -- 37
2019-05-27 20:00:00 24.8 9 Norte 25 Noroeste 0 -- -- 30
2019-05-27 19:00:00 24.2 11 Noroeste 26 Noroeste 0 -- -- 31
2019-05-27 18:00:00 26.4 14 Noroeste 26 Noroeste 0 -- -- 29
2019-05-27 17:00:00 25.9 11 Norte 57 Noroeste 0 -- -- 30
2019-05-27 16:00:00 23.7 12 Noroeste 30 Noroeste 0 -- -- 36
2019-05-27 15:00:00 24.1 10 Oeste 27 Noroeste 0 -- -- 37
2019-05-27 14:00:00 23.5 12 Noroeste 27 Oeste 0 -- -- 36
2019-05-27 13:00:00 22.2 10 Noroeste 21 Noroeste 0 -- -- 37
2019-05-27 12:00:00 20.6 9 Norte 24 Norte 0 -- -- 41
2019-05-27 11:00:00 19.3 8 Norte 19 Este 0 -- -- 45
2019-05-27 10:00:00 17.5 10 Nordeste 16 Nordeste 0 -- -- 50
2019-05-27 09:00:00 15.3 8 Norte 12 Nordeste 0 -- -- 56
2019-05-27 08:00:00 12.2 5 Norte 12 Norte 0 -- -- 74
2019-05-27 07:00:00 9.4 9 Norte 11 Norte 0 -- -- 84
2019-05-27 06:00:00 8.9 3 Noroeste 5 Noroeste 0 -- -- 85
2019-05-27 05:00:00 10 0 Calma 8 Nordeste 0 -- -- 83
2019-05-27 04:00:00 11.3 2 Nordeste 11 Nordeste 0 -- -- 80
2019-05-27 03:00:00 11.7 9 Nordeste 12 Nordeste 0 -- -- 76
2019-05-27 02:00:00 13.3 9 Nordeste 16 Nordeste 0 -- -- 69
2019-05-27 01:00:00 14.9 12 Nordeste 22 Nordeste 0 -- -- 64
2019-05-27 00:00:00 15.5 10 Nordeste 15 Nordeste 0 -- -- 62
2019-05-26 23:00:00 16.2 9 Nordeste 15 Nordeste 0 -- -- 58
2019-05-26 22:00:00 18.8 8 Este 12 Este 0 -- -- 50
2019-05-26 21:00:00 22.5 9 Nordeste 19 Norte 0 -- -- 40
2019-05-26 20:00:00 24.5 10 Norte 29 Norte 0 -- -- 33
2019-05-26 19:00:00 24.9 19 Norte 38 Nordeste 0 -- -- 31
2019-05-26 18:00:00 25 16 Norte 33 Norte 0 -- -- 31
2019-05-26 17:00:00 24.4 21 Norte 32 Norte 0 -- -- 33
2019-05-26 16:00:00 23.7 17 Norte 28 Noroeste 0 -- -- 35
2019-05-26 15:00:00 22.6 16 Norte 28 Noroeste 0 -- -- 39
2019-05-26 14:00:00 20.6 14 Norte 25 Norte 0 -- -- 41
2019-05-26 13:00:00 19.2 12 Norte 27 Norte 0 -- -- 47
2019-05-26 12:00:00 17.7 13 Norte 23 Norte 0 -- -- 50
2019-05-26 11:00:00 16.1 9 Norte 17 Noroeste 0 -- -- 54
2019-05-26 10:00:00 13.1 8 Norte 14 Norte 0 -- -- 63
2019-05-26 09:00:00 12.8 4 Nordeste 10 Norte 0 -- -- 64
2019-05-26 08:00:00 10.2 3 Noroeste 7 Norte 0 -- -- 74
2019-05-26 07:00:00 4.6 4 Noroeste 5 Noroeste 0 -- -- 92
2019-05-26 06:00:00 5.3 2 Noroeste 9 Oeste 0 -- -- 91
2019-05-26 05:00:00 6 0 Calma 5 Sudoeste 0 -- -- 88
2019-05-26 04:00:00 7.9 4 Este 7 Nordeste 0 -- -- 79
2019-05-26 03:00:00 9.2 5 Nordeste 14 Nordeste 0 -- -- 76
2019-05-26 02:00:00 9.5 8 Nordeste 13 Nordeste 0 -- -- 74
2019-05-26 01:00:00 11.3 7 Nordeste 19 Nordeste 0 -- -- 65
2019-05-26 00:00:00 12.7 12 Nordeste 18 Nordeste 0 -- -- 59
2019-05-25 23:00:00 13.6 5 Este 19 Norte 0 -- -- 57
2019-05-25 22:00:00 16.5 13 Nordeste 22 Nordeste 0 -- -- 47
2019-05-25 21:00:00 18.9 16 Nordeste 25 Nordeste 0 -- -- 41
2019-05-25 20:00:00 20.4 16 Norte 32 Noroeste 0 -- -- 36
2019-05-25 19:00:00 21.4 19 Norte 33 Norte 0 -- -- 33
2019-05-25 18:00:00 21.8 19 Norte 37 Norte 0 -- -- 33
2019-05-25 17:00:00 20.8 21 Norte 35 Noroeste 0 -- -- 34
2019-05-25 16:00:00 20 17 Norte 37 Norte 0 -- -- 36
2019-05-25 15:00:00 19.4 15 Nordeste 32 Norte 0 -- -- 40
2019-05-25 14:00:00 18 17 Nordeste 35 Norte 0 -- -- 45
2019-05-25 13:00:00 16.5 19 Nordeste 41 Nordeste 0 -- -- 48
2019-05-25 12:00:00 15.3 23 Nordeste 48 Nordeste 0 -- -- 51
2019-05-25 11:00:00 14.2 24 Nordeste 39 Nordeste 0 -- -- 56
2019-05-25 10:00:00 13.9 24 Nordeste 38 Nordeste 0 -- -- 56
2019-05-25 09:00:00 11.5 13 Norte 22 Norte 0 -- -- 70
2019-05-25 08:00:00 10.9 3 Noroeste 7 Oeste 0 -- -- 78
2019-05-25 07:00:00 4.6 4 Oeste 7 Sudeste 0 -- -- 94
2019-05-25 06:00:00 5.8 0 Calma 12 Norte 0 -- -- 90
2019-05-25 05:00:00 7.7 6 Nordeste 15 Norte 0 -- -- 86
2019-05-25 04:00:00 9.1 13 Nordeste 21 Norte 0 -- -- 82
2019-05-25 03:00:00 7.2 6 Noroeste 16 Norte 0 -- -- 88
2019-05-25 02:00:00 8.8 10 Norte 20 Norte 0 -- -- 82
2019-05-25 01:00:00 10.2 10 Norte 20 Norte 0 -- -- 74
2019-05-25 00:00:00 11.4 14 Nordeste 32 Nordeste 0 -- -- 67
2019-05-24 23:00:00 12.8 18 Nordeste 30 Nordeste 0 -- -- 59
2019-05-24 22:00:00 14.5 17 Norte 36 Nordeste 0 -- -- 50
2019-05-24 21:00:00 17.2 23 Norte 33 Norte 0 -- -- 42
2019-05-24 20:00:00 19.2 19 Nordeste 32 Nordeste 0 -- -- 37
2019-05-24 19:00:00 20.1 22 Nordeste 39 Nordeste 0 -- -- 35
2019-05-24 18:00:00 20.9 22 Norte 39 Norte 0 -- -- 34
2019-05-24 17:00:00 20.9 17 Norte 39 Norte 0 -- -- 35
2019-05-24 16:00:00 20.2 23 Norte 37 Norte 0 -- -- 34
2019-05-24 15:00:00 20.1 22 Norte 36 Norte 0 -- -- 36
2019-05-24 14:00:00 19.3 19 Norte 35 Norte 0 -- -- 41
2019-05-24 13:00:00 18.2 21 Norte 36 Norte 0 -- -- 44
2019-05-24 12:00:00 17 19 Norte 34 Norte 0 -- -- 49
2019-05-24 11:00:00 15.8 22 Norte 33 Norte 0 -- -- 52
2019-05-24 10:00:00 14.8 18 Norte 30 Norte 0 -- -- 61
2019-05-24 09:00:00 12 19 Norte 27 Norte 0 -- -- 75
2019-05-24 08:00:00 9.7 9 Noroeste 14 Noroeste 0 -- -- 84
2019-05-24 07:00:00 8.4 5 Noroeste 12 Noroeste 0 -- -- 90
2019-05-24 06:00:00 9.9 6 Noroeste 13 Noroeste 0 -- -- 88
2019-05-24 05:00:00 10.9 10 Noroeste 15 Noroeste 0 -- -- 83
2019-05-24 04:00:00 11.4 6 Noroeste 16 Norte 0 -- -- 85
2019-05-24 03:00:00 11.8 9 Norte 20 Norte 0 -- -- 82
2019-05-24 02:00:00 12.2 11 Norte 23 Norte 0 -- -- 80
2019-05-24 01:00:00 13.3 14 Norte 26 Noroeste 0 -- -- 75
2019-05-24 00:00:00 15.7 14 Oeste 26 Oeste 0 -- -- 59
2019-05-23 23:00:00 17.2 17 Oeste 25 Oeste 0 -- -- 53
2019-05-23 22:00:00 19 17 Oeste 30 Oeste 0 -- -- 45
2019-05-23 21:00:00 21.6 22 Oeste 38 Oeste 0 -- -- 33
2019-05-23 20:00:00 24.1 24 Oeste 38 Oeste 0 -- -- 29
2019-05-23 19:00:00 25.8 23 Oeste 39 Oeste 0 -- -- 27
2019-05-23 18:00:00 26 20 Sudoeste 36 Sudoeste 0 -- -- 30
2019-05-23 17:00:00 26.8 13 Oeste 39 Oeste 0 -- -- 29
2019-05-23 16:00:00 25.8 20 Oeste 30 Sudoeste 0 -- -- 32
2019-05-23 15:00:00 26.6 11 Oeste 26 Oeste 0 -- -- 29
2019-05-23 14:00:00 25.5 15 Oeste 37 Sur 0 -- -- 30
2019-05-23 13:00:00 23.4 8 Noroeste 19 Oeste 0 -- -- 45
2019-05-23 12:00:00 20.5 8 Sudoeste 13 Sudoeste 0 -- -- 54
2019-05-23 11:00:00 20.8 3 Nordeste 12 Sudoeste 0 -- -- 54
2019-05-23 10:00:00 17.8 8 Sudoeste 17 Sudoeste 0 -- -- 64
2019-05-23 09:00:00 15.4 13 Sudoeste 21 Sudoeste 0 -- -- 74
2019-05-23 08:00:00 13.1 10 Sudoeste 19 Sudoeste 0 -- -- 82
2019-05-23 07:00:00 12.1 12 Sudoeste 21 Sudoeste 0 -- -- 84
2019-05-23 06:00:00 12.6 13 Sudoeste 22 Sudoeste 0 -- -- 83
2019-05-23 05:00:00 12 13 Sudoeste 18 Sudoeste 0 -- -- 79
2019-05-23 04:00:00 13.4 12 Sudoeste 16 Sudoeste 0 -- -- 63
2019-05-23 03:00:00 13.9 12 Sudoeste 18 Sudoeste 0 -- -- 57
2019-05-23 02:00:00 12.9 8 Sudoeste 12 Sudoeste 0 -- -- 64
2019-05-23 01:00:00 14 10 Sur 12 Sur 0 -- -- 54
2019-05-23 00:00:00 15.1 6 Sudeste 10 Noroeste 0 -- -- 55
2019-05-22 23:00:00 17.2 10 Noroeste 13 Noroeste 0 -- -- 48
2019-05-22 22:00:00 17 9 Noroeste 12 Noroeste 0 -- -- 53
2019-05-22 21:00:00 22.8 8 Norte 15 Oeste 0 -- -- 31
2019-05-22 20:00:00 25.4 12 Oeste 20 Oeste 0 -- -- 25
2019-05-22 19:00:00 28.1 3 Norte 21 Noroeste 0 -- -- 21
2019-05-22 18:00:00 27.6 12 Oeste 22 Oeste 0 -- -- 21
2019-05-22 17:00:00 27 11 Oeste 26 Oeste 0 -- -- 23
2019-05-22 16:00:00 25.8 9 Oeste 26 Noroeste 0 -- -- 25
2019-05-22 15:00:00 25.6 9 Noroeste 21 Noroeste 0 -- -- 24
2019-05-22 14:00:00 24.6 8 Norte 16 Oeste 0 -- -- 27
2019-05-22 13:00:00 23.7 8 Nordeste 14 Nordeste 0 -- -- 28
2019-05-22 12:00:00 22.1 6 Nordeste 10 Nordeste 0 -- -- 35
2019-05-22 11:00:00 19.3 4 Nordeste 10 Sudeste 0 -- -- 42
2019-05-22 10:00:00 15.1 6 Nordeste 13 Nordeste 0 -- -- 54
2019-05-22 09:00:00 12.2 5 Nordeste 11 Norte 0 -- -- 64
2019-05-22 08:00:00 9.7 0 Calma 6 Oeste 0 -- -- 73
2019-05-22 07:00:00 5 4 Oeste 9 Oeste 0 -- -- 86
2019-05-22 06:00:00 5.3 6 Noroeste 12 Noroeste 0 -- -- 84
2019-05-22 05:00:00 6.1 0 Calma 4 Noroeste 0 -- -- 84
2019-05-22 04:00:00 6.6 2 Sudoeste 5 Sudoeste 0 -- -- 78
2019-05-22 03:00:00 7.8 0 Calma 7 Norte 0 -- -- 70
2019-05-22 02:00:00 9 4 Noroeste 9 Nordeste 0 -- -- 71
2019-05-22 01:00:00 10.7 8 Este 12 Este 0 -- -- 64
2019-05-22 00:00:00 12.5 7 Nordeste 17 Nordeste 0 -- -- 55